Time;durP1;ratioP1;P1;durP2;ratioP2;P2;SDS_P1;SDS_P2;PMS_P1;PMS_P2;Temp;Humidity;BMP_temperature;BMP_pressure;BME280_temperature;BME280_humidity;BME280_pressure;Samples;Min_cycle;Max_cycle;Signal;HPM_P1;HPM_P2
2022/06/21 00:01:14;;;;;;;9.02;2.80;;;13.20;99.90;;;;;;5058512;28;20201;-77
2022/06/21 00:03:45;;;;;;;9.00;2.70;;;13.30;99.90;;;;;;5062520;28;20245;-80
2022/06/21 00:06:18;;;;;;;6.10;2.63;;;13.40;99.90;;;;;;5059157;28;20680;-78
2022/06/21 00:08:49;;;;;;;4.10;2.75;;;13.40;99.90;;;;;;5059219;28;20197;-77
2022/06/21 00:11:24;;;;;;;4.68;2.63;;;13.50;99.90;;;;;;5061635;28;20212;-77
2022/06/21 00:13:55;;;;;;;6.10;2.88;;;13.60;99.90;;;;;;5063363;28;20188;-77
2022/06/21 00:16:29;;;;;;;4.95;2.58;;;13.70;99.90;;;;;;5063282;28;20189;-77
2022/06/21 00:19:01;;;;;;;6.50;3.10;;;13.90;99.90;;;;;;5056266;28;20211;-78
2022/06/21 00:21:36;;;;;;;13.60;2.83;;;14.00;99.90;;;;;;5065251;28;20208;-79
2022/06/21 00:24:08;;;;;;;4.53;2.20;;;14.10;99.90;;;;;;5060193;28;20686;-77
2022/06/21 00:26:38;;;;;;;5.68;2.10;;;14.20;99.90;;;;;;5065959;28;20279;-78
2022/06/21 00:29:09;;;;;;;4.63;2.30;;;14.10;99.90;;;;;;5059024;28;20304;-77
2022/06/21 00:31:45;;;;;;;5.75;2.00;;;14.30;99.90;;;;;;5060354;28;20209;-78
2022/06/21 00:34:18;;;;;;;5.45;1.80;;;14.40;99.90;;;;;;5059965;28;20205;-76
2022/06/21 00:36:50;;;;;;;5.55;1.88;;;14.50;99.90;;;;;;5059876;28;20478;-77
2022/06/21 00:39:23;;;;;;;4.20;2.20;;;14.60;99.90;;;;;;5057178;28;20197;-78
2022/06/21 00:41:55;;;;;;;10.10;5.68;;;14.70;99.90;;;;;;5060105;28;20197;-77
2022/06/21 00:44:34;;;;;;;15.25;9.48;;;14.80;99.90;;;;;;5063680;28;20679;-76
2022/06/21 00:47:15;;;;;;;22.60;12.20;;;14.90;99.90;;;;;;5065967;28;20639;-76
2022/06/21 00:49:52;;;;;;;23.45;13.20;;;15.00;99.90;;;;;;5055626;28;20200;-80
2022/06/21 00:52:26;;;;;;;14.60;8.65;;;15.10;99.90;;;;;;5060360;28;20193;-77
2022/06/21 00:55:00;;;;;;;11.38;5.75;;;15.20;99.90;;;;;;5065183;28;20200;-78
2022/06/21 00:57:38;;;;;;;6.13;2.75;;;15.30;99.90;;;;;;5058531;28;20193;-77
2022/06/21 01:00:30;;;;;;;13.20;5.22;;;15.40;99.90;;;;;;5061146;28;20205;-80
2022/06/21 01:03:06;;;;;;;5.60;1.80;;;15.50;99.90;;;;;;5056323;28;20228;-79
2022/06/21 01:05:41;;;;;;;4.70;2.03;;;15.70;99.90;;;;;;5063992;28;20691;-81
2022/06/21 01:08:15;;;;;;;6.07;1.73;;;15.70;99.90;;;;;;5061164;28;20224;-79
2022/06/21 01:10:49;;;;;;;4.95;1.40;;;15.80;99.90;;;;;;5060462;28;20299;-80
2022/06/21 01:13:23;;;;;;;5.30;1.70;;;15.90;99.90;;;;;;5061046;28;20282;-78
2022/06/21 01:15:56;;;;;;;3.20;1.20;;;16.00;99.90;;;;;;5057521;28;20667;-78
2022/06/21 01:18:30;;;;;;;2.92;1.10;;;16.10;99.90;;;;;;5062432;28;20548;-79
2022/06/21 01:21:02;;;;;;;1.98;1.20;;;16.20;99.90;;;;;;5059008;28;20209;-78
2022/06/21 01:23:52;;;;;;;6.90;2.10;;;16.30;99.90;;;;;;5059994;28;20209;-78
2022/06/21 01:26:50;;;;;;;3.58;1.40;;;16.40;99.90;;;;;;5060616;28;20204;-79
2022/06/21 01:29:23;;;;;;;3.25;1.20;;;16.60;99.90;;;;;;5040530;28;20211;-79
2022/06/21 01:31:55;;;;;;;4.60;1.27;;;16.70;99.90;;;;;;5059106;28;20193;-78
2022/06/21 01:34:27;;;;;;;6.13;1.48;;;16.80;99.90;;;;;;5061555;28;20209;-79
2022/06/21 01:37:04;;;;;;;2.33;1.30;;;16.80;99.90;;;;;;5056956;28;20556;-77
2022/06/21 01:39:41;;;;;;;3.33;1.20;;;16.90;99.90;;;;;;5060010;28;20268;-78
2022/06/21 01:42:17;;;;;;;3.15;1.17;;;16.90;99.90;;;;;;5059096;28;20189;-77
2022/06/21 01:44:52;;;;;;;2.40;1.05;;;17.00;99.90;;;;;;5059821;28;20228;-81
2022/06/21 01:47:30;;;;;;;3.17;1.10;;;17.00;99.90;;;;;;5066002;28;20199;-80
2022/06/21 01:50:04;;;;;;;5.20;1.23;;;17.10;99.90;;;;;;5064401;28;20201;-81
2022/06/21 01:52:38;;;;;;;4.22;1.65;;;17.10;99.90;;;;;;5060881;28;20184;-78
2022/06/21 01:55:13;;;;;;;2.83;1.17;;;17.20;99.90;;;;;;5063652;28;20192;-78
2022/06/21 01:57:47;;;;;;;3.08;1.23;;;17.30;99.90;;;;;;5053989;28;20189;-78
2022/06/21 02:00:19;;;;;;;4.03;2.05;;;17.40;99.90;;;;;;5064518;28;20205;-79
2022/06/21 02:02:54;;;;;;;4.07;1.45;;;17.50;99.90;;;;;;5054553;28;20230;-80
2022/06/21 02:05:27;;;;;;;4.35;1.27;;;17.60;99.90;;;;;;5057429;28;20193;-80
2022/06/21 02:08:01;;;;;;;3.13;1.27;;;17.80;99.90;;;;;;5054738;28;20558;-81
2022/06/21 02:10:35;;;;;;;4.65;1.15;;;17.90;99.90;;;;;;5061725;28;20193;-80
2022/06/21 02:13:13;;;;;;;2.75;1.30;;;18.10;99.90;;;;;;5062203;28;20718;-81
2022/06/21 02:15:49;;;;;;;2.90;1.20;;;18.20;99.90;;;;;;5059427;28;20205;-80
2022/06/21 02:18:20;;;;;;;3.85;1.27;;;18.30;99.90;;;;;;5058633;28;20604;-80
2022/06/21 02:20:55;;;;;;;4.07;1.30;;;18.30;99.90;;;;;;5056853;28;20205;-81
2022/06/21 02:23:27;;;;;;;4.40;1.17;;;18.40;99.90;;;;;;5057162;28;20250;-80
2022/06/21 02:25:59;;;;;;;2.78;1.17;;;18.40;99.90;;;;;;5057984;28;20288;-81
2022/06/21 02:28:32;;;;;;;2.70;0.93;;;18.50;99.90;;;;;;5062907;28;20208;-79
2022/06/21 02:31:03;;;;;;;3.40;0.95;;;18.50;99.90;;;;;;5063855;28;20190;-81
2022/06/21 02:33:36;;;;;;;3.00;0.90;;;18.60;99.90;;;;;;5058383;28;20209;-77
2022/06/21 02:36:10;;;;;;;2.40;1.10;;;18.80;99.90;;;;;;5062861;28;20206;-81
2022/06/21 02:38:44;;;;;;;12.20;4.30;;;18.80;99.90;;;;;;5060930;28;20231;-77
2022/06/21 02:41:18;;;;;;;3.55;1.60;;;19.00;99.90;;;;;;5063039;28;20201;-81
2022/06/21 02:43:54;;;;;;;4.38;1.40;;;19.00;99.90;;;;;;5061521;28;20219;-81
2022/06/21 02:46:28;;;;;;;5.93;1.67;;;19.10;99.90;;;;;;5061343;28;20281;-80
2022/06/21 02:49:04;;;;;;;2.42;1.10;;;19.20;99.90;;;;;;5063802;28;20192;-79
2022/06/21 02:51:38;;;;;;;3.53;0.93;;;19.30;99.90;;;;;;5060196;28;20206;-80
2022/06/21 02:54:16;;;;;;;2.35;1.02;;;19.40;99.90;;;;;;5061024;28;20200;-80
2022/06/21 02:56:50;;;;;;;3.25;1.00;;;19.50;99.90;;;;;;5055461;28;20205;-79
2022/06/21 02:59:23;;;;;;;3.72;1.10;;;19.50;99.90;;;;;;5057920;28;20560;-80
2022/06/21 03:01:58;;;;;;;10.50;4.28;;;19.60;99.90;;;;;;5062638;28;20279;-79
2022/06/21 03:04:35;;;;;;;4.72;1.02;;;19.70;99.90;;;;;;5064291;28;20236;-78
2022/06/21 03:07:07;;;;;;;3.78;1.08;;;19.70;99.90;;;;;;5058348;28;20601;-79
2022/06/21 03:09:39;;;;;;;2.30;0.93;;;19.60;99.90;;;;;;5059524;28;20189;-80
2022/06/21 03:12:12;;;;;;;2.60;0.90;;;19.60;99.90;;;;;;5061301;28;20202;-81
2022/06/21 03:14:45;;;;;;;9.32;3.25;;;19.70;99.90;;;;;;5060797;28;20198;-80
2022/06/21 03:17:19;;;;;;;3.85;1.52;;;19.50;99.90;;;;;;5060504;28;20200;-80
2022/06/21 03:19:53;;;;;;;2.97;0.90;;;19.50;99.90;;;;;;5062316;28;20212;-80
2022/06/21 03:22:26;;;;;;;1.88;1.08;;;19.40;99.90;;;;;;5063131;28;20198;-80
2022/06/21 03:24:58;;;;;;;2.13;1.00;;;19.30;99.90;;;;;;5062562;28;20608;-80
2022/06/21 03:27:33;;;;;;;7.13;1.10;;;19.30;99.90;;;;;;5059028;28;20284;-81
2022/06/21 03:30:07;;;;;;;2.85;1.00;;;19.30;99.90;;;;;;5067152;28;20598;-77
2022/06/21 03:32:40;;;;;;;2.63;0.88;;;19.20;99.90;;;;;;5063306;28;20198;-77
2022/06/21 03:35:13;;;;;;;1.83;0.80;;;19.10;99.90;;;;;;5061350;28;20212;-77
2022/06/21 03:37:45;;;;;;;2.13;0.90;;;19.10;99.90;;;;;;5061123;28;20193;-78
2022/06/21 03:43:16;;;;;;;2.25;1.00;;;19.00;99.90;;;;;;5063424;28;20216;-78
2022/06/21 03:45:53;;;;;;;1.30;0.90;;;18.90;99.90;;;;;;5059163;28;20192;-77
2022/06/21 03:48:31;;;;;;;0.85;0.70;;;18.90;99.90;;;;;;5059551;28;20188;-78
2022/06/21 03:51:08;;;;;;;4.05;2.58;;;18.90;99.90;;;;;;5059324;28;20189;-78
2022/06/21 03:53:44;;;;;;;3.10;1.75;;;18.80;99.90;;;;;;5066463;28;20549;-77
2022/06/21 03:56:21;;;;;;;1.75;0.90;;;18.80;99.90;;;;;;5060166;28;20192;-76
2022/06/21 03:58:59;;;;;;;1.77;1.10;;;18.80;99.90;;;;;;5058806;28;20651;-78
2022/06/21 04:01:38;;;;;;;3.55;1.00;;;18.80;99.90;;;;;;5061900;28;20217;-78
2022/06/21 04:04:13;;;;;;;2.88;0.98;;;18.80;99.90;;;;;;5060472;28;20683;-77
2022/06/21 04:06:52;;;;;;;4.47;1.05;;;18.70;99.90;;;;;;5059767;28;20558;-78
2022/06/21 04:09:31;;;;;;;1.63;1.30;;;18.70;99.90;;;;;;5059768;28;20233;-77
2022/06/21 04:12:07;;;;;;;2.17;1.00;;;18.60;99.90;;;;;;5064189;28;20199;-77
2022/06/21 04:14:41;;;;;;;4.75;1.10;;;18.50;99.90;;;;;;5057046;28;20186;-78
2022/06/21 04:17:21;;;;;;;2.78;0.90;;;18.50;99.90;;;;;;5064920;28;20192;-78
2022/06/21 04:19:56;;;;;;;1.52;0.90;;;18.50;99.90;;;;;;5061886;28;20530;-78
2022/06/21 04:22:33;;;;;;;1.70;0.82;;;18.40;99.90;;;;;;5055847;28;20206;-76
2022/06/21 04:25:11;;;;;;;1.42;0.70;;;18.40;99.90;;;;;;5063201;28;20213;-78
2022/06/21 04:27:53;;;;;;;2.83;0.90;;;18.50;99.90;;;;;;5060263;28;20239;-76
2022/06/21 04:30:26;;;;;;;1.83;0.80;;;18.60;99.90;;;;;;5062615;28;20186;-76
2022/06/21 04:33:04;;;;;;;1.45;0.70;;;18.70;99.90;;;;;;5064240;28;20196;-77
2022/06/21 04:35:38;;;;;;;3.83;0.60;;;18.80;99.90;;;;;;5064820;28;20552;-77
2022/06/21 04:38:13;;;;;;;1.85;0.70;;;19.00;99.90;;;;;;5061517;28;20193;-77
2022/06/21 04:40:48;;;;;;;1.45;0.73;;;19.10;99.90;;;;;;5061879;28;20180;-76
2022/06/21 04:43:25;;;;;;;1.75;0.70;;;19.20;99.90;;;;;;5060795;28;20254;-76
2022/06/21 04:46:01;;;;;;;1.90;0.70;;;19.20;99.90;;;;;;5057573;28;20221;-75
2022/06/21 04:48:41;;;;;;;1.45;0.70;;;19.10;99.90;;;;;;5066815;28;20197;-77
2022/06/21 04:51:17;;;;;;;2.38;0.80;;;19.10;99.90;;;;;;5063230;28;20192;-76
2022/06/21 04:53:54;;;;;;;0.93;0.60;;;19.00;99.90;;;;;;5063166;28;20193;-77
2022/06/21 04:56:33;;;;;;;1.35;0.65;;;19.00;99.90;;;;;;5060452;28;20197;-75
2022/06/21 04:59:07;;;;;;;2.78;0.70;;;19.00;99.90;;;;;;5054798;28;20193;-75
2022/06/21 05:01:38;;;;;;;2.42;0.70;;;19.00;99.90;;;;;;5055330;28;20217;-76
2022/06/21 05:04:14;;;;;;;2.03;0.88;;;19.00;99.90;;;;;;5059509;28;20711;-75
2022/06/21 05:06:45;;;;;;;1.27;0.90;;;19.00;99.90;;;;;;5054891;28;20201;-76
2022/06/21 05:09:17;;;;;;;2.78;0.70;;;19.00;99.90;;;;;;5059973;28;20552;-76
2022/06/21 05:11:54;;;;;;;1.35;0.80;;;19.00;99.90;;;;;;5068772;28;20185;-76
2022/06/21 05:14:28;;;;;;;2.83;0.88;;;19.10;99.90;;;;;;5067759;28;20193;-76
2022/06/21 05:16:59;;;;;;;0.90;0.70;;;19.00;99.90;;;;;;5056281;28;20660;-77
2022/06/21 05:19:35;;;;;;;0.95;0.70;;;18.90;99.90;;;;;;5054052;28;20189;-75
2022/06/21 05:22:11;;;;;;;2.03;1.00;;;18.80;99.90;;;;;;5060399;28;20188;-77
2022/06/21 05:24:42;;;;;;;2.80;0.80;;;18.60;99.90;;;;;;5061010;28;20209;-78
2022/06/21 05:27:19;;;;;;;1.00;0.70;;;18.50;99.90;;;;;;5057801;28;20242;-78
2022/06/21 05:29:54;;;;;;;0.82;0.70;;;18.40;99.90;;;;;;5060622;28;20184;-77
2022/06/21 05:32:29;;;;;;;2.40;0.82;;;18.30;99.90;;;;;;5063775;28;20671;-77
2022/06/21 05:35:08;;;;;;;3.53;0.88;;;18.30;99.90;;;;;;5059375;28;20640;-77
2022/06/21 05:37:54;;;;;;;2.70;1.00;;;18.30;99.90;;;;;;5062891;28;20232;-78
2022/06/21 05:40:33;;;;;;;3.72;1.15;;;18.30;99.90;;;;;;5063032;28;20193;-78
2022/06/21 05:43:03;;;;;;;1.27;0.70;;;18.40;99.90;;;;;;5056149;28;20659;-78
2022/06/21 05:45:37;;;;;;;1.10;0.73;;;18.50;99.90;;;;;;5054877;28;20221;-77
2022/06/21 05:48:15;;;;;;;1.30;1.00;;;18.60;99.90;;;;;;5059218;28;20248;-77
2022/06/21 05:50:50;;;;;;;2.72;0.80;;;18.60;99.90;;;;;;5059259;28;20641;-78
2022/06/21 05:53:30;;;;;;;2.97;0.98;;;18.60;99.90;;;;;;5055730;28;20652;-79
2022/06/21 05:56:03;;;;;;;3.20;1.25;;;18.60;99.90;;;;;;5056620;28;20197;-80
2022/06/21 05:58:38;;;;;;;2.20;0.90;;;18.50;99.90;;;;;;5065161;28;20695;-79
2022/06/21 06:01:15;;;;;;;3.80;1.25;;;18.40;99.90;;;;;;5062615;28;20191;-79
2022/06/21 06:03:52;;;;;;;3.58;1.10;;;18.30;99.90;;;;;;5058799;28;20259;-78
2022/06/21 06:06:29;;;;;;;3.65;1.30;;;18.20;99.90;;;;;;5068292;28;20223;-78
2022/06/21 06:09:03;;;;;;;4.03;1.20;;;18.10;99.90;;;;;;5071679;28;20203;-79
2022/06/21 06:14:37;;;;;;;4.18;0.90;;;17.90;99.90;;;;;;5064115;28;20201;-81
2022/06/21 06:17:20;;;;;;;1.63;1.10;;;17.90;99.90;;;;;;5062760;28;20189;-80
2022/06/21 06:19:58;;;;;;;6.47;4.20;;;17.80;99.90;;;;;;5063276;28;20197;-81
2022/06/21 06:22:38;;;;;;;7.55;5.18;;;17.70;99.90;;;;;;5056869;28;20201;-85
2022/06/21 06:25:17;;;;;;;4.60;1.50;;;17.60;99.90;;;;;;5058407;28;20263;-80
2022/06/21 06:27:56;;;;;;;4.72;1.67;;;17.60;99.90;;;;;;5056910;28;20201;-81
2022/06/21 06:30:32;;;;;;;12.95;8.02;;;17.50;99.90;;;;;;5063803;28;20209;-79
2022/06/21 06:33:17;;;;;;;8.57;5.00;;;17.60;99.90;;;;;;5067024;28;20189;-79
2022/06/21 06:35:50;;;;;;;5.65;3.20;;;17.60;99.90;;;;;;5059374;28;20653;-82
2022/06/21 06:38:23;;;;;;;7.60;3.97;;;17.60;99.90;;;;;;5066280;28;20321;-79
2022/06/21 06:40:59;;;;;;;4.13;2.80;;;17.70;99.90;;;;;;5064006;28;20559;-81
2022/06/21 06:43:35;;;;;;;7.07;2.90;;;17.70;99.90;;;;;;5055252;28;20205;-80
2022/06/21 06:46:08;;;;;;;22.27;13.00;;;17.60;99.90;;;;;;5055993;28;20566;-81
2022/06/21 06:48:41;;;;;;;22.50;14.05;;;17.60;99.90;;;;;;5063520;28;20197;-83
2022/06/21 06:51:39;;;;;;;19.60;11.57;;;17.60;99.90;;;;;;5058100;28;20244;-80
2022/06/21 06:54:18;;;;;;;15.02;9.10;;;17.50;99.90;;;;;;5059304;28;20722;-82
2022/06/21 06:57:02;;;;;;;14.05;7.30;;;17.50;99.90;;;;;;5059200;28;20194;-81
2022/06/21 06:59:33;;;;;;;10.02;4.93;;;17.40;99.90;;;;;;5063786;28;20200;-82
2022/06/21 07:02:12;;;;;;;6.55;3.63;;;17.30;99.90;;;;;;5059471;28;20221;-82
2022/06/21 07:04:47;;;;;;;6.90;4.15;;;17.20;99.90;;;;;;5055785;28;20217;-78
2022/06/21 07:07:24;;;;;;;7.63;3.45;;;17.10;99.90;;;;;;5058574;28;20208;-82
2022/06/21 07:10:02;;;;;;;10.65;4.88;;;17.00;99.90;;;;;;5059563;28;20200;-82
2022/06/21 07:12:34;;;;;;;5.25;3.47;;;17.00;99.90;;;;;;5064758;28;20212;-81
2022/06/21 07:15:05;;;;;;;10.60;3.83;;;16.90;99.90;;;;;;5062943;28;20202;-82
2022/06/21 07:17:40;;;;;;;6.95;3.45;;;16.80;99.90;;;;;;5066833;28;20207;-82
2022/06/21 07:20:18;;;;;;;8.40;3.78;;;16.70;99.90;;;;;;5070102;28;20246;-83
2022/06/21 07:22:48;;;;;;;5.20;3.03;;;16.70;99.90;;;;;;5056944;28;20701;-82
2022/06/21 07:25:26;;;;;;;5.22;2.95;;;16.60;99.90;;;;;;5067040;28;20672;-83
2022/06/21 07:28:00;;;;;;;6.45;3.25;;;16.60;99.90;;;;;;5058889;28;20189;-83
2022/06/21 07:30:39;;;;;;;6.60;3.10;;;16.50;99.90;;;;;;5059839;28;20296;-82
2022/06/21 07:33:15;;;;;;;6.78;3.58;;;16.40;99.90;;;;;;5063259;28;20222;-83
2022/06/21 07:35:50;;;;;;;3.70;2.67;;;16.40;99.90;;;;;;5059163;28;20257;-82
2022/06/21 07:38:25;;;;;;;4.00;2.80;;;16.40;99.90;;;;;;5060897;28;20656;-83
2022/06/21 07:41:04;;;;;;;6.88;2.58;;;16.30;99.90;;;;;;5060994;28;20192;-84
2022/06/21 07:43:39;;;;;;;7.15;3.00;;;16.20;99.90;;;;;;5057647;28;20232;-84
2022/06/21 07:46:11;;;;;;;6.03;2.60;;;16.10;99.90;;;;;;5062666;22;20252;-77
2022/06/21 07:48:46;;;;;;;6.60;2.85;;;16.00;99.90;;;;;;5023327;28;20202;-76
2022/06/21 07:51:19;;;;;;;9.32;2.88;;;16.00;99.90;;;;;;5025120;28;20216;-76
2022/06/21 07:53:55;;;;;;;6.55;3.15;;;15.90;99.90;;;;;;5030259;28;20190;-77
2022/06/21 07:56:31;;;;;;;6.05;2.88;;;15.80;99.90;;;;;;5032083;28;20226;-75
2022/06/21 07:59:06;;;;;;;8.20;3.20;;;15.70;99.90;;;;;;5026273;28;20596;-75
2022/06/21 08:07:35;;;;;;;5.57;2.65;;;15.70;99.90;;;;;;4920876;29;20238;-78
2022/06/21 08:10:11;;;;;;;4.68;2.80;;;15.60;99.90;;;;;;4993252;28;20199;-77
2022/06/21 08:12:44;;;;;;;5.10;3.38;;;15.60;99.90;;;;;;5027273;28;20672;-76
2022/06/21 08:15:15;;;;;;;4.82;3.15;;;15.50;99.90;;;;;;5030559;28;20218;-75
2022/06/21 08:17:49;;;;;;;7.90;3.13;;;15.50;99.90;;;;;;5028314;28;20281;-76
2022/06/21 08:20:25;;;;;;;6.15;3.13;;;15.50;99.90;;;;;;5025310;28;20276;-76
2022/06/21 08:23:03;;;;;;;5.47;3.53;;;15.40;99.90;;;;;;5028847;28;20240;-76
2022/06/21 08:25:43;;;;;;;6.35;4.18;;;15.40;99.90;;;;;;5026360;28;20218;-75
2022/06/21 08:28:20;;;;;;;9.18;4.35;;;15.40;99.90;;;;;;5023893;28;20194;-76
2022/06/21 08:30:55;;;;;;;6.55;3.97;;;15.40;99.90;;;;;;5027769;28;20202;-76
2022/06/21 08:33:31;;;;;;;9.15;4.50;;;15.40;99.90;;;;;;5028907;28;20940;-75
2022/06/21 08:36:05;;;;;;;6.60;4.40;;;15.40;99.90;;;;;;5028138;28;20198;-81
2022/06/21 08:38:43;;;;;;;8.88;4.40;;;15.40;99.90;;;;;;5024071;28;20652;-76
2022/06/21 08:41:55;;;;;;;6.28;3.88;;;15.40;99.90;;;;;;5032003;28;20194;-76
2022/06/21 08:48:18;;;;;;;8.77;4.43;;;15.50;99.90;;;;;;4990322;28;20218;-76
2022/06/21 08:51:04;;;;;;;9.65;4.80;;;15.50;99.90;;;;;;4992809;28;20198;-76
2022/06/21 08:53:51;;;;;;;7.10;4.50;;;15.50;99.90;;;;;;4990981;28;20243;-76
2022/06/21 08:56:29;;;;;;;5.97;4.40;;;15.60;99.90;;;;;;4987752;28;20199;-75
2022/06/21 08:59:10;;;;;;;8.82;3.72;;;15.60;99.90;;;;;;4984979;28;20291;-75
2022/06/21 09:01:52;;;;;;;5.35;3.53;;;15.60;99.90;;;;;;4991292;28;20203;-75
2022/06/21 09:04:43;;;;;;;3.83;2.30;;;15.60;99.90;;;;;;4988550;28;20199;-75
2022/06/21 09:07:43;;;;;;;3.30;2.42;;;15.60;99.90;;;;;;4992286;28;20682;-75
2022/06/21 09:10:27;;;;;;;4.68;2.50;;;15.60;99.90;;;;;;4990522;28;20199;-75
2022/06/21 09:13:08;;;;;;;3.40;2.10;;;15.50;99.90;;;;;;4990204;28;20195;-75
2022/06/21 09:15:49;;;;;;;3.45;2.00;;;15.50;99.90;;;;;;4991045;28;20211;-75
2022/06/21 09:18:34;;;;;;;2.95;1.85;;;15.40;99.90;;;;;;4988966;28;20667;-75
2022/06/21 09:21:10;;;;;;;2.50;1.58;;;15.40;99.90;;;;;;4988992;28;20195;-75
2022/06/21 09:24:01;;;;;;;2.45;1.70;;;15.30;99.90;;;;;;4990355;28;20199;-76
2022/06/21 09:26:42;;;;;;;3.75;1.95;;;15.20;99.90;;;;;;4987287;28;20325;-77
2022/06/21 09:29:29;;;;;;;2.63;1.90;;;15.20;99.90;;;;;;4991618;28;20206;-77
2022/06/21 09:32:13;;;;;;;2.42;2.00;;;15.10;99.90;;;;;;4989870;28;20210;-76
2022/06/21 09:34:54;;;;;;;2.92;2.10;;;15.10;99.90;;;;;;4988682;28;20217;-75
2022/06/21 09:37:33;;;;;;;2.67;1.85;;;15.10;99.90;;;;;;4993387;28;20206;-76
2022/06/21 09:40:11;;;;;;;2.67;1.80;;;14.90;99.90;;;;;;4992864;28;20191;-76
2022/06/21 09:42:47;;;;;;;2.92;2.05;;;14.90;99.90;;;;;;4995237;28;20202;-75
2022/06/21 09:45:26;;;;;;;3.08;2.00;;;14.90;99.90;;;;;;4996934;28;20230;-76
2022/06/21 09:48:10;;;;;;;3.28;1.90;;;14.80;99.90;;;;;;5029865;28;20637;-75
2022/06/21 09:50:52;;;;;;;2.95;2.00;;;14.70;99.90;;;;;;5035037;28;20217;-76
2022/06/21 09:53:37;;;;;;;2.40;1.90;;;14.70;99.90;;;;;;5027459;28;20218;-76
2022/06/21 09:56:15;;;;;;;3.63;1.92;;;14.60;99.90;;;;;;5032363;28;20193;-77
2022/06/21 09:58:55;;;;;;;3.45;1.95;;;14.50;99.90;;;;;;5033536;28;20198;-77
2022/06/21 10:01:41;;;;;;;4.10;2.38;;;14.40;99.90;;;;;;5032707;28;20208;-76
2022/06/21 10:04:24;;;;;;;2.90;2.13;;;14.20;99.90;;;;;;5032922;28;20198;-76
2022/06/21 10:07:04;;;;;;;3.38;2.00;;;14.10;99.90;;;;;;5029956;28;20727;-79
2022/06/21 10:09:50;;;;;;;4.93;2.08;;;14.00;99.90;;;;;;5031700;28;20289;-76
2022/06/21 10:12:34;;;;;;;3.47;2.20;;;14.00;99.90;;;;;;5034124;28;20201;-76
2022/06/21 10:15:35;;;;;;;3.28;2.10;;;13.90;99.90;;;;;;5034811;28;20197;-76
2022/06/21 10:18:46;;;;;;;2.88;2.00;;;13.90;99.90;;;;;;5030914;28;20213;-79
2022/06/21 10:21:46;;;;;;;4.05;2.30;;;13.90;99.90;;;;;;5032543;28;20201;-76
2022/06/21 10:24:46;;;;;;;3.65;2.10;;;13.80;99.90;;;;;;5034961;28;20190;-76
2022/06/21 10:27:48;;;;;;;5.47;2.35;;;13.80;99.90;;;;;;5032858;28;20222;-76
2022/06/21 10:30:39;;;;;;;2.97;2.13;;;13.80;99.90;;;;;;5033664;28;20209;-76
2022/06/21 10:33:28;;;;;;;3.42;2.42;;;13.70;99.90;;;;;;5034784;28;20202;-77
2022/06/21 10:36:19;;;;;;;2.92;2.30;;;13.60;99.90;;;;;;5033741;28;20206;-76
2022/06/21 10:39:09;;;;;;;4.15;2.80;;;13.60;99.90;;;;;;5027166;28;20191;-76
2022/06/21 10:44:57;;;;;;;5.68;2.88;;;13.50;99.90;;;;;;5029600;28;20279;-76
2022/06/21 10:47:39;;;;;;;4.63;2.95;;;13.40;99.90;;;;;;5028706;28;20735;-76
2022/06/21 10:50:35;;;;;;;3.88;2.65;;;13.30;99.90;;;;;;5033851;28;20189;-77
2022/06/21 10:53:28;;;;;;;3.92;2.65;;;13.20;99.90;;;;;;5032832;28;20201;-76
2022/06/21 10:59:14;;;;;;;6.00;3.08;;;13.10;99.90;;;;;;5003480;28;20224;-77
2022/06/21 11:01:49;;;;;;;7.63;3.10;;;13.10;99.90;;;;;;5029179;28;20244;-77
2022/06/21 11:04:45;;;;;;;4.93;2.88;;;13.00;99.90;;;;;;5035210;28;20199;-77
2022/06/21 11:07:24;;;;;;;5.57;3.20;;;13.00;99.90;;;;;;5031894;28;20230;-78
2022/06/21 11:10:00;;;;;;;5.68;3.20;;;13.00;99.90;;;;;;5031879;28;20312;-77
2022/06/21 11:12:56;;;;;;;4.57;2.90;;;12.90;99.90;;;;;;5031725;28;20571;-76
2022/06/21 11:15:57;;;;;;;6.03;2.60;;;13.00;99.90;;;;;;5033590;28;20198;-78
2022/06/21 11:18:40;;;;;;;4.25;2.80;;;13.00;99.90;;;;;;5033046;28;20206;-76
2022/06/21 11:21:24;;;;;;;4.57;2.78;;;13.10;99.90;;;;;;5031565;28;20194;-80
2022/06/21 11:24:06;;;;;;;4.50;2.97;;;13.10;99.90;;;;;;5032721;28;20198;-77
2022/06/21 11:26:46;;;;;;;5.15;2.78;;;13.20;99.90;;;;;;5029413;28;20202;-78
2022/06/21 11:29:27;;;;;;;5.30;3.05;;;13.30;99.90;;;;;;5027216;28;20195;-77
2022/06/21 11:32:05;;;;;;;4.25;2.88;;;13.30;99.90;;;;;;5033990;28;20371;-77
2022/06/21 11:34:46;;;;;;;5.85;3.25;;;13.30;99.90;;;;;;5032658;28;20194;-76
2022/06/21 11:37:28;;;;;;;5.18;3.42;;;13.40;99.90;;;;;;5032480;28;20233;-76
2022/06/21 11:40:07;;;;;;;7.78;3.72;;;13.40;99.90;;;;;;5028659;28;20598;-75
2022/06/21 11:42:44;;;;;;;5.70;3.88;;;13.30;99.90;;;;;;5031398;28;20198;-75
2022/06/21 11:45:30;;;;;;;8.70;4.85;;;13.30;99.90;;;;;;5029640;28;20198;-78
2022/06/21 11:48:37;;;;;;;8.70;4.32;;;13.30;99.90;;;;;;5030002;28;20225;-78
2022/06/21 11:51:34;;;;;;;6.97;3.90;;;13.30;99.90;;;;;;5026629;28;20198;-78
2022/06/21 11:54:10;;;;;;;5.30;3.67;;;13.20;99.90;;;;;;5015263;28;20205;-76
2022/06/21 11:56:51;;;;;;;6.75;3.72;;;13.30;99.90;;;;;;5033701;28;20217;-77
2022/06/21 11:59:41;;;;;;;5.57;3.50;;;13.10;99.90;;;;;;5029742;28;20202;-76
2022/06/21 12:02:20;;;;;;;5.80;3.60;;;13.10;99.90;;;;;;5027607;28;20207;-76
2022/06/21 12:05:01;;;;;;;5.07;3.17;;;13.10;99.90;;;;;;5032172;28;20231;-78
2022/06/21 12:07:39;;;;;;;4.22;2.70;;;13.10;99.90;;;;;;5028730;28;20213;-77
2022/06/21 12:10:18;;;;;;;3.85;2.60;;;13.10;99.90;;;;;;5029279;28;20235;-80
2022/06/21 12:12:58;;;;;;;4.88;2.85;;;13.10;99.90;;;;;;5026665;28;20205;-82
2022/06/21 12:15:46;;;;;;;3.65;2.70;;;13.10;99.90;;;;;;5030301;28;20190;-76
2022/06/21 12:18:20;;;;;;;4.43;2.67;;;13.10;99.90;;;;;;5033647;28;20728;-78
2022/06/21 12:20:56;;;;;;;5.70;3.00;;;13.00;99.90;;;;;;5029596;28;20241;-79
2022/06/21 12:23:33;;;;;;;3.42;2.50;;;13.00;99.90;;;;;;5031900;28;20197;-76
2022/06/21 12:26:03;;;;;;;3.40;2.42;;;12.90;99.90;;;;;;5032528;28;20201;-81
2022/06/21 12:28:38;;;;;;;3.63;2.63;;;13.00;99.90;;;;;;5032749;28;20198;-77
2022/06/21 12:31:18;;;;;;;3.50;2.38;;;12.90;99.90;;;;;;5033435;28;20205;-80
2022/06/21 12:33:52;;;;;;;3.33;2.42;;;12.90;99.90;;;;;;5027967;28;20216;-82
2022/06/21 12:36:44;;;;;;;3.47;2.20;;;12.70;99.90;;;;;;5022865;28;20186;-79
2022/06/21 12:39:22;;;;;;;3.20;2.53;;;12.70;99.90;;;;;;5029999;28;20190;-77
2022/06/21 12:42:24;;;;;;;5.50;2.50;;;12.80;99.90;;;;;;5032681;28;20183;-76
2022/06/21 12:45:06;;;;;;;3.60;2.35;;;12.70;99.90;;;;;;5021605;28;20195;-76
2022/06/21 12:47:46;;;;;;;3.50;2.22;;;12.70;99.90;;;;;;5032440;28;20210;-76
2022/06/21 12:50:46;;;;;;;5.75;2.30;;;12.60;99.90;;;;;;5027781;28;20606;-79
2022/06/21 12:53:54;;;;;;;4.28;2.25;;;12.60;99.90;;;;;;5026590;28;20217;-76
2022/06/21 12:56:45;;;;;;;3.15;2.10;;;12.50;99.90;;;;;;5029184;28;20657;-77
2022/06/21 12:59:33;;;;;;;2.35;1.88;;;12.50;99.90;;;;;;5028628;28;20205;-78
2022/06/21 13:02:28;;;;;;;2.22;1.92;;;12.60;99.90;;;;;;5030272;28;20198;-80
2022/06/21 13:05:33;;;;;;;3.42;2.05;;;12.50;99.90;;;;;;5024121;28;20210;-77
2022/06/21 13:08:38;;;;;;;2.85;1.90;;;12.50;99.90;;;;;;5017830;28;20283;-77
2022/06/21 13:11:30;;;;;;;2.40;1.92;;;12.50;99.90;;;;;;5028458;28;20198;-85
2022/06/21 13:14:26;;;;;;;3.08;1.65;;;12.50;99.90;;;;;;5024759;28;20198;-77
2022/06/21 13:17:10;;;;;;;2.58;1.70;;;12.40;99.90;;;;;;5029212;28;20209;-80
2022/06/21 13:19:53;;;;;;;2.85;1.70;;;12.40;99.90;;;;;;5025117;28;20657;-78
2022/06/21 13:22:50;;;;;;;2.95;1.70;;;12.40;99.90;;;;;;5029355;28;20198;-80
2022/06/21 13:25:50;;;;;;;2.15;1.58;;;12.40;99.90;;;;;;5028734;28;20205;-80
2022/06/21 13:28:44;;;;;;;1.40;1.27;;;12.40;99.90;;;;;;5030214;28;20594;-78
2022/06/21 13:31:21;;;;;;;1.63;1.40;;;12.40;99.90;;;;;;5027806;28;20198;-76
2022/06/21 13:34:21;;;;;;;2.38;1.52;;;12.30;99.90;;;;;;5027897;28;20701;-77
2022/06/21 13:36:54;;;;;;;2.25;1.58;;;12.20;99.90;;;;;;5029290;28;20205;-81
2022/06/21 13:39:35;;;;;;;1.38;1.20;;;12.30;99.90;;;;;;5030030;28;20202;-76
2022/06/21 13:45:11;;;;;;;2.60;1.30;;;12.30;99.90;;;;;;5029111;28;20236;-77
2022/06/21 13:47:50;;;;;;;1.77;1.42;;;12.30;99.90;;;;;;5029085;28;20245;-78
2022/06/21 13:50:26;;;;;;;2.72;1.23;;;12.40;99.90;;;;;;5026456;28;20268;-78
2022/06/21 13:53:03;;;;;;;1.50;1.30;;;12.40;99.90;;;;;;5029584;28;20253;-87
2022/06/21 13:55:45;;;;;;;1.60;1.20;;;12.50;99.90;;;;;;5025459;28;20194;-88
2022/06/21 13:58:34;;;;;;;2.20;1.10;;;12.50;99.90;;;;;;5030372;28;20206;-86
2022/06/21 14:01:15;;;;;;;1.48;1.20;;;12.50;99.90;;;;;;5027190;28;20194;-87
2022/06/21 14:04:10;;;;;;;1.80;1.30;;;12.50;99.90;;;;;;5027607;28;20244;-77
2022/06/21 14:06:56;;;;;;;3.92;1.60;;;12.50;99.90;;;;;;5027581;28;20565;-78
2022/06/21 14:09:34;;;;;;;1.85;1.45;;;12.50;99.90;;;;;;5028815;28;20198;-77
2022/06/21 14:12:14;;;;;;;2.53;1.30;;;12.40;99.90;;;;;;5027010;28;20214;-84